sensor_id;sensor_type;location;lat;lon;timestamp;temperature;humidity
13091;DHT22;6611;52.604;13.438;2023-06-22T00:02:22;19.23;82.65
13091;DHT22;6611;52.604;13.438;2023-06-22T00:07:24;19.13;82.96
13091;DHT22;6611;52.604;13.438;2023-06-22T00:12:26;19.08;83.21
13091;DHT22;6611;52.604;13.438;2023-06-22T00:17:28;19.01;83.43
13091;DHT22;6611;52.604;13.438;2023-06-22T00:22:30;18.98;83.11
13091;DHT22;6611;52.604;13.438;2023-06-22T00:27:33;18.91;83.23
13091;DHT22;6611;52.604;13.438;2023-06-22T00:32:34;18.88;83.47
13091;DHT22;6611;52.604;13.438;2023-06-22T00:37:36;18.78;83.72
13091;DHT22;6611;52.604;13.438;2023-06-22T00:42:40;18.75;83.94
13091;DHT22;6611;52.604;13.438;2023-06-22T00:47:42;18.67;84.23
13091;DHT22;6611;52.604;13.438;2023-06-22T00:52:44;18.64;84.14
13091;DHT22;6611;52.604;13.438;2023-06-22T00:57:48;18.51;84.12
13091;DHT22;6611;52.604;13.438;2023-06-22T01:02:50;18.47;84.13
13091;DHT22;6611;52.604;13.438;2023-06-22T01:08:00;18.40;84.35
13091;DHT22;6611;52.604;13.438;2023-06-22T01:13:11;18.32;84.75
13091;DHT22;6611;52.604;13.438;2023-06-22T01:18:17;18.25;85.04
13091;DHT22;6611;52.604;13.438;2023-06-22T01:23:26;18.26;85.02
13091;DHT22;6611;52.604;13.438;2023-06-22T01:28:43;18.15;85.22
13091;DHT22;6611;52.604;13.438;2023-06-22T01:33:50;18.08;85.13
13091;DHT22;6611;52.604;13.438;2023-06-22T01:38:52;18.05;85.14
13091;DHT22;6611;52.604;13.438;2023-06-22T01:43:56;18.04;84.96
13091;DHT22;6611;52.604;13.438;2023-06-22T01:48:58;18.01;84.73
13091;DHT22;6611;52.604;13.438;2023-06-22T01:54:01;17.99;85.22
13091;DHT22;6611;52.604;13.438;2023-06-22T01:59:09;17.84;85.85
13091;DHT22;6611;52.604;13.438;2023-06-22T02:04:18;17.75;85.77
13091;DHT22;6611;52.604;13.438;2023-06-22T02:09:22;17.77;85.71
13091;DHT22;6611;52.604;13.438;2023-06-22T02:14:26;17.73;86.09
13091;DHT22;6611;52.604;13.438;2023-06-22T02:19:28;17.74;85.99
13091;DHT22;6611;52.604;13.438;2023-06-22T02:24:33;17.69;86.13
13091;DHT22;6611;52.604;13.438;2023-06-22T02:29:36;17.71;86.37
13091;DHT22;6611;52.604;13.438;2023-06-22T02:34:38;17.73;86.21
13091;DHT22;6611;52.604;13.438;2023-06-22T02:39:40;17.71;86.65
13091;DHT22;6611;52.604;13.438;2023-06-22T02:44:43;17.78;86.44
13091;DHT22;6611;52.604;13.438;2023-06-22T02:49:44;17.75;86.56
13091;DHT22;6611;52.604;13.438;2023-06-22T02:54:47;17.81;86.61
13091;DHT22;6611;52.604;13.438;2023-06-22T02:59:50;17.80;86.72
13091;DHT22;6611;52.604;13.438;2023-06-22T03:04:51;17.84;86.78
13091;DHT22;6611;52.604;13.438;2023-06-22T03:09:54;17.91;86.39
13091;DHT22;6611;52.604;13.438;2023-06-22T03:14:56;17.94;85.93
13091;DHT22;6611;52.604;13.438;2023-06-22T03:19:59;17.94;86.25
13091;DHT22;6611;52.604;13.438;2023-06-22T03:25:00;17.92;86.20
13091;DHT22;6611;52.604;13.438;2023-06-22T03:30:04;17.88;86.17
13091;DHT22;6611;52.604;13.438;2023-06-22T03:35:07;17.89;86.49
13091;DHT22;6611;52.604;13.438;2023-06-22T03:40:09;17.95;86.18
13091;DHT22;6611;52.604;13.438;2023-06-22T03:45:12;17.97;86.27
13091;DHT22;6611;52.604;13.438;2023-06-22T03:50:14;17.98;86.47
13091;DHT22;6611;52.604;13.438;2023-06-22T03:55:16;18.01;86.44
13091;DHT22;6611;52.604;13.438;2023-06-22T04:00:19;18.10;86.50
13091;DHT22;6611;52.604;13.438;2023-06-22T04:05:20;18.19;86.37
13091;DHT22;6611;52.604;13.438;2023-06-22T04:10:22;18.32;86.12
13091;DHT22;6611;52.604;13.438;2023-06-22T04:15:25;18.37;86.26
13091;DHT22;6611;52.604;13.438;2023-06-22T04:20:27;18.53;85.98
13091;DHT22;6611;52.604;13.438;2023-06-22T04:25:28;18.61;85.88
13091;DHT22;6611;52.604;13.438;2023-06-22T04:30:32;18.75;85.62
13091;DHT22;6611;52.604;13.438;2023-06-22T04:35:34;18.98;85.36
13091;DHT22;6611;52.604;13.438;2023-06-22T04:40:36;19.19;84.70
13091;DHT22;6611;52.604;13.438;2023-06-22T04:45:39;19.41;84.05
13091;DHT22;6611;52.604;13.438;2023-06-22T04:50:40;19.61;83.37
13091;DHT22;6611;52.604;13.438;2023-06-22T04:55:42;19.75;82.49
13091;DHT22;6611;52.604;13.438;2023-06-22T05:00:48;19.89;79.25
13091;DHT22;6611;52.604;13.438;2023-06-22T05:05:52;20.17;79.87
13091;DHT22;6611;52.604;13.438;2023-06-22T05:10:54;20.32;78.39
13091;DHT22;6611;52.604;13.438;2023-06-22T05:15:57;20.43;76.64
13091;DHT22;6611;52.604;13.438;2023-06-22T05:21:01;20.54;76.27
13091;DHT22;6611;52.604;13.438;2023-06-22T05:26:03;20.78;76.85
13091;DHT22;6611;52.604;13.438;2023-06-22T05:31:06;20.99;73.32
13091;DHT22;6611;52.604;13.438;2023-06-22T05:36:08;21.24;73.35
13091;DHT22;6611;52.604;13.438;2023-06-22T05:41:10;21.44;72.69
13091;DHT22;6611;52.604;13.438;2023-06-22T05:46:13;21.47;70.01
13091;DHT22;6611;52.604;13.438;2023-06-22T05:51:15;21.61;70.44
13091;DHT22;6611;52.604;13.438;2023-06-22T05:56:16;21.74;68.56
13091;DHT22;6611;52.604;13.438;2023-06-22T06:01:20;21.98;68.28
13091;DHT22;6611;52.604;13.438;2023-06-22T06:06:21;22.13;66.80
13091;DHT22;6611;52.604;13.438;2023-06-22T06:11:29;22.26;67.48
13091;DHT22;6611;52.604;13.438;2023-06-22T06:16:32;22.43;66.48
13091;DHT22;6611;52.604;13.438;2023-06-22T06:21:33;22.50;66.78
13091;DHT22;6611;52.604;13.438;2023-06-22T06:26:35;22.55;67.12
13091;DHT22;6611;52.604;13.438;2023-06-22T06:31:38;22.61;66.84
13091;DHT22;6611;52.604;13.438;2023-06-22T06:36:39;22.53;66.67
13091;DHT22;6611;52.604;13.438;2023-06-22T06:41:41;22.48;65.51
13091;DHT22;6611;52.604;13.438;2023-06-22T06:46:44;22.78;64.83
13091;DHT22;6611;52.604;13.438;2023-06-22T06:51:46;23.12;64.20
13091;DHT22;6611;52.604;13.438;2023-06-22T06:56:48;23.65;62.58
13091;DHT22;6611;52.604;13.438;2023-06-22T07:01:51;24.37;58.78
13091;DHT22;6611;52.604;13.438;2023-06-22T07:06:53;24.95;57.78
13091;DHT22;6611;52.604;13.438;2023-06-22T07:11:54;25.89;57.28
13091;DHT22;6611;52.604;13.438;2023-06-22T07:16:58;26.30;54.87
13091;DHT22;6611;52.604;13.438;2023-06-22T07:21:59;26.85;53.20
13091;DHT22;6611;52.604;13.438;2023-06-22T07:27:01;26.81;52.59
13091;DHT22;6611;52.604;13.438;2023-06-22T07:32:06;26.61;53.31
13091;DHT22;6611;52.604;13.438;2023-06-22T07:37:08;26.26;52.24
13091;DHT22;6611;52.604;13.438;2023-06-22T07:42:09;26.37;54.14
13091;DHT22;6611;52.604;13.438;2023-06-22T07:47:13;26.50;54.31
13091;DHT22;6611;52.604;13.438;2023-06-22T07:52:14;26.48;54.10
13091;DHT22;6611;52.604;13.438;2023-06-22T07:57:16;26.65;51.74
13091;DHT22;6611;52.604;13.438;2023-06-22T08:02:19;26.79;51.57
13091;DHT22;6611;52.604;13.438;2023-06-22T08:07:20;26.71;49.67
13091;DHT22;6611;52.604;13.438;2023-06-22T08:12:22;26.54;50.86
13091;DHT22;6611;52.604;13.438;2023-06-22T08:17:25;27.09;49.10
13091;DHT22;6611;52.604;13.438;2023-06-22T08:22:27;27.20;46.68
13091;DHT22;6611;52.604;13.438;2023-06-22T08:27:30;26.76;48.47
13091;DHT22;6611;52.604;13.438;2023-06-22T08:32:34;26.72;49.60
13091;DHT22;6611;52.604;13.438;2023-06-22T08:37:36;26.41;48.53
13091;DHT22;6611;52.604;13.438;2023-06-22T08:42:40;26.31;49.81
13091;DHT22;6611;52.604;13.438;2023-06-22T08:47:43;26.30;49.51
13091;DHT22;6611;52.604;13.438;2023-06-22T08:52:45;26.19;53.46
13091;DHT22;6611;52.604;13.438;2023-06-22T08:57:48;26.09;49.41
13091;DHT22;6611;52.604;13.438;2023-06-22T09:02:51;26.12;49.54
13091;DHT22;6611;52.604;13.438;2023-06-22T09:07:52;26.09;49.93
13091;DHT22;6611;52.604;13.438;2023-06-22T09:12:56;26.27;50.30
13091;DHT22;6611;52.604;13.438;2023-06-22T09:18:00;26.83;47.88
13091;DHT22;6611;52.604;13.438;2023-06-22T09:23:02;27.78;49.51
13091;DHT22;6611;52.604;13.438;2023-06-22T09:28:03;27.84;46.44
13091;DHT22;6611;52.604;13.438;2023-06-22T09:33:06;27.73;45.97
13091;DHT22;6611;52.604;13.438;2023-06-22T09:38:08;27.72;48.43
13091;DHT22;6611;52.604;13.438;2023-06-22T09:43:10;28.18;48.71
13091;DHT22;6611;52.604;13.438;2023-06-22T09:48:13;28.76;43.98
13091;DHT22;6611;52.604;13.438;2023-06-22T09:53:15;28.92;44.52
13091;DHT22;6611;52.604;13.438;2023-06-22T09:58:17;29.16;44.14
13091;DHT22;6611;52.604;13.438;2023-06-22T10:03:20;29.21;43.49
13091;DHT22;6611;52.604;13.438;2023-06-22T10:08:21;29.19;40.23
13091;DHT22;6611;52.604;13.438;2023-06-22T10:13:23;29.31;43.55
13091;DHT22;6611;52.604;13.438;2023-06-22T10:18:26;29.50;42.22
13091;DHT22;6611;52.604;13.438;2023-06-22T10:23:28;29.31;41.85
13091;DHT22;6611;52.604;13.438;2023-06-22T10:28:29;29.50;45.32
13091;DHT22;6611;52.604;13.438;2023-06-22T10:33:32;29.48;44.87
13091;DHT22;6611;52.604;13.438;2023-06-22T10:38:34;29.76;45.34
13091;DHT22;6611;52.604;13.438;2023-06-22T10:43:35;29.50;41.15
13091;DHT22;6611;52.604;13.438;2023-06-22T10:48:38;28.89;43.99
13091;DHT22;6611;52.604;13.438;2023-06-22T10:53:40;29.06;43.63
13091;DHT22;6611;52.604;13.438;2023-06-22T10:58:42;29.30;42.25
13091;DHT22;6611;52.604;13.438;2023-06-22T11:03:45;29.30;42.02
13091;DHT22;6611;52.604;13.438;2023-06-22T11:08:47;29.07;42.54
13091;DHT22;6611;52.604;13.438;2023-06-22T11:13:49;29.26;43.27
13091;DHT22;6611;52.604;13.438;2023-06-22T11:18:52;29.21;42.28
13091;DHT22;6611;52.604;13.438;2023-06-22T11:23:53;29.37;43.02
13091;DHT22;6611;52.604;13.438;2023-06-22T11:28:55;28.95;44.39
13091;DHT22;6611;52.604;13.438;2023-06-22T11:33:58;28.92;43.44
13091;DHT22;6611;52.604;13.438;2023-06-22T11:39:01;29.47;43.09
13091;DHT22;6611;52.604;13.438;2023-06-22T11:44:03;29.95;42.57
13091;DHT22;6611;52.604;13.438;2023-06-22T11:49:06;30.03;40.84
13091;DHT22;6611;52.604;13.438;2023-06-22T11:54:07;30.07;40.63
13091;DHT22;6611;52.604;13.438;2023-06-22T11:59:09;30.05;42.13
13091;DHT22;6611;52.604;13.438;2023-06-22T12:04:12;29.43;40.89
13091;DHT22;6611;52.604;13.438;2023-06-22T12:09:14;29.31;41.45
13091;DHT22;6611;52.604;13.438;2023-06-22T12:14:15;29.81;42.41
13091;DHT22;6611;52.604;13.438;2023-06-22T12:19:18;29.82;41.73
13091;DHT22;6611;52.604;13.438;2023-06-22T12:24:20;29.88;41.08
13091;DHT22;6611;52.604;13.438;2023-06-22T12:29:22;29.93;41.90
13091;DHT22;6611;52.604;13.438;2023-06-22T12:34:25;30.03;40.77
13091;DHT22;6611;52.604;13.438;2023-06-22T12:39:26;30.28;43.05
13091;DHT22;6611;52.604;13.438;2023-06-22T12:44:28;30.27;40.28
13091;DHT22;6611;52.604;13.438;2023-06-22T12:49:31;30.03;39.46
13091;DHT22;6611;52.604;13.438;2023-06-22T12:54:33;29.98;41.62
13091;DHT22;6611;52.604;13.438;2023-06-22T12:59:34;29.88;41.62
13091;DHT22;6611;52.604;13.438;2023-06-22T13:04:37;29.47;41.86
13091;DHT22;6611;52.604;13.438;2023-06-22T13:09:39;29.16;42.99
13091;DHT22;6611;52.604;13.438;2023-06-22T13:14:41;28.98;44.25
13091;DHT22;6611;52.604;13.438;2023-06-22T13:19:44;29.31;45.21
13091;DHT22;6611;52.604;13.438;2023-06-22T13:24:46;29.66;42.59
13091;DHT22;6611;52.604;13.438;2023-06-22T13:29:48;29.88;42.35
13091;DHT22;6611;52.604;13.438;2023-06-22T13:34:54;29.81;44.05
13091;DHT22;6611;52.604;13.438;2023-06-22T13:39:56;29.72;44.23
13091;DHT22;6611;52.604;13.438;2023-06-22T13:44:59;29.37;41.52
13091;DHT22;6611;52.604;13.438;2023-06-22T13:50:03;29.23;44.93
13091;DHT22;6611;52.604;13.438;2023-06-22T13:55:05;29.31;42.44
13091;DHT22;6611;52.604;13.438;2023-06-22T14:00:09;29.41;42.74
13091;DHT22;6611;52.604;13.438;2023-06-22T14:05:14;29.35;44.70
13091;DHT22;6611;52.604;13.438;2023-06-22T14:10:15;29.28;44.44
13091;DHT22;6611;52.604;13.438;2023-06-22T14:15:17;29.37;44.49
13091;DHT22;6611;52.604;13.438;2023-06-22T14:20:20;29.24;42.61
13091;DHT22;6611;52.604;13.438;2023-06-22T14:25:22;29.28;44.68
13091;DHT22;6611;52.604;13.438;2023-06-22T14:30:23;29.31;43.46
13091;DHT22;6611;52.604;13.438;2023-06-22T14:35:26;29.23;46.15
13091;DHT22;6611;52.604;13.438;2023-06-22T14:40:28;29.24;45.51
13091;DHT22;6611;52.604;13.438;2023-06-22T14:45:29;29.17;45.74
13091;DHT22;6611;52.604;13.438;2023-06-22T14:50:32;29.07;45.08
13091;DHT22;6611;52.604;13.438;2023-06-22T14:55:34;28.99;44.39
13091;DHT22;6611;52.604;13.438;2023-06-22T15:00:36;28.89;45.40
13091;DHT22;6611;52.604;13.438;2023-06-22T15:05:39;28.86;44.90
13091;DHT22;6611;52.604;13.438;2023-06-22T15:10:41;28.74;44.38
13091;DHT22;6611;52.604;13.438;2023-06-22T15:15:42;28.68;46.09
13091;DHT22;6611;52.604;13.438;2023-06-22T15:20:45;28.69;46.90
13091;DHT22;6611;52.604;13.438;2023-06-22T15:25:48;28.65;46.49
13091;DHT22;6611;52.604;13.438;2023-06-22T15:30:52;28.64;46.65
13091;DHT22;6611;52.604;13.438;2023-06-22T15:36:01;28.61;46.55
13091;DHT22;6611;52.604;13.438;2023-06-22T15:41:07;28.64;45.72
13091;DHT22;6611;52.604;13.438;2023-06-22T15:46:09;28.61;45.65
13091;DHT22;6611;52.604;13.438;2023-06-22T15:51:12;28.36;46.93
13091;DHT22;6611;52.604;13.438;2023-06-22T15:56:14;28.17;47.50
13091;DHT22;6611;52.604;13.438;2023-06-22T16:01:16;28.13;47.03
13091;DHT22;6611;52.604;13.438;2023-06-22T16:06:20;28.09;47.15
13091;DHT22;6611;52.604;13.438;2023-06-22T16:11:21;28.02;46.59
13091;DHT22;6611;52.604;13.438;2023-06-22T16:16:23;27.93;46.78
13091;DHT22;6611;52.604;13.438;2023-06-22T16:21:26;28.13;47.91
13091;DHT22;6611;52.604;13.438;2023-06-22T16:26:30;28.06;48.26
13091;DHT22;6611;52.604;13.438;2023-06-22T16:31:32;27.96;47.00
13091;DHT22;6611;52.604;13.438;2023-06-22T16:36:35;27.82;47.53
13091;DHT22;6611;52.604;13.438;2023-06-22T16:41:36;27.81;48.25
13091;DHT22;6611;52.604;13.438;2023-06-22T16:46:38;27.64;48.06
13091;DHT22;6611;52.604;13.438;2023-06-22T16:51:42;27.57;48.72
13091;DHT22;6611;52.604;13.438;2023-06-22T16:56:44;27.29;49.63
13091;DHT22;6611;52.604;13.438;2023-06-22T17:01:51;27.10;49.45
13091;DHT22;6611;52.604;13.438;2023-06-22T17:06:58;27.03;50.02
13091;DHT22;6611;52.604;13.438;2023-06-22T17:12:00;26.96;49.29
13091;DHT22;6611;52.604;13.438;2023-06-22T17:17:03;26.98;49.56
13091;DHT22;6611;52.604;13.438;2023-06-22T17:22:06;26.96;49.82
13091;DHT22;6611;52.604;13.438;2023-06-22T17:27:08;26.89;49.93
13091;DHT22;6611;52.604;13.438;2023-06-22T17:32:09;26.83;50.21
13091;DHT22;6611;52.604;13.438;2023-06-22T17:37:12;26.79;51.35
13091;DHT22;6611;52.604;13.438;2023-06-22T17:42:21;26.71;52.00
13091;DHT22;6611;52.604;13.438;2023-06-22T17:47:23;26.61;52.63
13091;DHT22;6611;52.604;13.438;2023-06-22T17:52:26;26.51;53.08
13091;DHT22;6611;52.604;13.438;2023-06-22T17:57:35;26.39;53.03
13091;DHT22;6611;52.604;13.438;2023-06-22T18:02:40;26.26;52.64
13091;DHT22;6611;52.604;13.438;2023-06-22T18:07:44;26.16;53.61
13091;DHT22;6611;52.604;13.438;2023-06-22T18:12:47;26.02;53.13
13091;DHT22;6611;52.604;13.438;2023-06-22T18:17:50;25.99;53.45
13091;DHT22;6611;52.604;13.438;2023-06-22T18:22:53;25.93;53.17
13091;DHT22;6611;52.604;13.438;2023-06-22T18:27:55;25.75;55.17
13091;DHT22;6611;52.604;13.438;2023-06-22T18:32:57;25.62;55.99
13091;DHT22;6611;52.604;13.438;2023-06-22T18:38:01;25.51;55.16
13091;DHT22;6611;52.604;13.438;2023-06-22T18:43:03;25.43;54.69
13091;DHT22;6611;52.604;13.438;2023-06-22T18:48:04;25.38;55.15
13091;DHT22;6611;52.604;13.438;2023-06-22T18:53:14;25.20;56.45
13091;DHT22;6611;52.604;13.438;2023-06-22T18:58:18;25.12;55.60
13091;DHT22;6611;52.604;13.438;2023-06-22T19:03:30;25.10;55.26
13091;DHT22;6611;52.604;13.438;2023-06-22T19:14:09;24.91;56.48
13091;DHT22;6611;52.604;13.438;2023-06-22T19:19:11;24.86;57.01
13091;DHT22;6611;52.604;13.438;2023-06-22T19:24:28;24.74;57.33
13091;DHT22;6611;52.604;13.438;2023-06-22T19:29:31;24.68;56.39
13091;DHT22;6611;52.604;13.438;2023-06-22T19:34:35;24.64;56.88
13091;DHT22;6611;52.604;13.438;2023-06-22T19:39:37;24.57;56.81
13091;DHT22;6611;52.604;13.438;2023-06-22T19:44:40;24.60;56.81
13091;DHT22;6611;52.604;13.438;2023-06-22T19:49:42;24.50;56.12
13091;DHT22;6611;52.604;13.438;2023-06-22T19:54:44;24.50;56.40
13091;DHT22;6611;52.604;13.438;2023-06-22T19:59:47;24.50;55.79
13091;DHT22;6611;52.604;13.438;2023-06-22T20:04:49;24.44;56.40
13091;DHT22;6611;52.604;13.438;2023-06-22T20:10:06;24.48;54.39
13091;DHT22;6611;52.604;13.438;2023-06-22T20:15:19;24.50;55.09
13091;DHT22;6611;52.604;13.438;2023-06-22T20:20:22;24.33;55.94
13091;DHT22;6611;52.604;13.438;2023-06-22T20:25:25;24.23;57.45
13091;DHT22;6611;52.604;13.438;2023-06-22T20:30:28;24.13;57.62
13091;DHT22;6611;52.604;13.438;2023-06-22T20:35:31;24.02;57.69
13091;DHT22;6611;52.604;13.438;2023-06-22T20:40:33;23.96;58.34
13091;DHT22;6611;52.604;13.438;2023-06-22T20:45:36;23.90;60.98
13091;DHT22;6611;52.604;13.438;2023-06-22T20:50:39;23.05;71.10
13091;DHT22;6611;52.604;13.438;2023-06-22T20:55:41;21.95;78.78
13091;DHT22;6611;52.604;13.438;2023-06-22T21:00:45;21.18;79.45
13091;DHT22;6611;52.604;13.438;2023-06-22T21:05:47;21.00;82.26
13091;DHT22;6611;52.604;13.438;2023-06-22T21:10:49;20.95;83.10
13091;DHT22;6611;52.604;13.438;2023-06-22T21:15:55;20.53;85.58
13091;DHT22;6611;52.604;13.438;2023-06-22T21:20:56;20.40;85.98
13091;DHT22;6611;52.604;13.438;2023-06-22T21:25:58;20.19;85.49
13091;DHT22;6611;52.604;13.438;2023-06-22T21:31:02;20.16;86.96
13091;DHT22;6611;52.604;13.438;2023-06-22T21:36:04;20.20;87.24
13091;DHT22;6611;52.604;13.438;2023-06-22T21:41:05;20.26;87.45
13091;DHT22;6611;52.604;13.438;2023-06-22T21:46:08;20.25;87.33
13091;DHT22;6611;52.604;13.438;2023-06-22T21:51:10;20.30;87.31
13091;DHT22;6611;52.604;13.438;2023-06-22T21:56:12;20.12;87.69
13091;DHT22;6611;52.604;13.438;2023-06-22T22:01:16;19.99;88.48
13091;DHT22;6611;52.604;13.438;2023-06-22T22:06:17;19.91;88.54
13091;DHT22;6611;52.604;13.438;2023-06-22T22:11:21;19.71;88.76
13091;DHT22;6611;52.604;13.438;2023-06-22T22:16:24;19.60;88.58
13091;DHT22;6611;52.604;13.438;2023-06-22T22:21:27;19.65;88.91
13091;DHT22;6611;52.604;13.438;2023-06-22T22:26:28;19.73;89.57
13091;DHT22;6611;52.604;13.438;2023-06-22T22:31:32;19.67;88.66
13091;DHT22;6611;52.604;13.438;2023-06-22T22:36:38;19.43;88.25
13091;DHT22;6611;52.604;13.438;2023-06-22T22:41:40;19.30;88.80
13091;DHT22;6611;52.604;13.438;2023-06-22T22:46:43;19.31;88.96
13091;DHT22;6611;52.604;13.438;2023-06-22T22:51:45;19.26;88.17
13091;DHT22;6611;52.604;13.438;2023-06-22T22:56:46;19.20;88.74
13091;DHT22;6611;52.604;13.438;2023-06-22T23:01:49;19.18;88.86
13091;DHT22;6611;52.604;13.438;2023-06-22T23:06:51;19.06;88.71
13091;DHT22;6611;52.604;13.438;2023-06-22T23:11:55;19.06;88.61
13091;DHT22;6611;52.604;13.438;2023-06-22T23:16:57;19.01;88.17
13091;DHT22;6611;52.604;13.438;2023-06-22T23:21:59;18.96;89.17
13091;DHT22;6611;52.604;13.438;2023-06-22T23:27:01;18.95;88.84
13091;DHT22;6611;52.604;13.438;2023-06-22T23:32:05;18.89;89.01
13091;DHT22;6611;52.604;13.438;2023-06-22T23:37:06;18.85;88.16
13091;DHT22;6611;52.604;13.438;2023-06-22T23:42:09;18.83;89.20
13091;DHT22;6611;52.604;13.438;2023-06-22T23:47:13;18.78;89.03
13091;DHT22;6611;52.604;13.438;2023-06-22T23:52:14;18.72;88.63
13091;DHT22;6611;52.604;13.438;2023-06-22T23:57:17;18.63;89.12
